Time;durP1;ratioP1;P1;durP2;ratioP2;P2;SDS_P1;SDS_P2;PMS_P1;PMS_P2;Temp;Humidity;BMP_temperature;BMP_pressure;BME280_temperature;BME280_humidity;BME280_pressure;Samples;Min_cycle;Max_cycle;Signal;HPM_P1;HPM_P2
2021/11/25 00:00:18;;;;;;;;;;;3.60;99.90;;;;;;5095890;28;19934;-77
2021/11/25 00:02:45;;;;;;;;;;;3.50;99.90;;;;;;5095784;28;20019;-77
2021/11/25 00:05:12;;;;;;;;;;;3.50;99.90;;;;;;5095762;28;20015;-77
2021/11/25 00:07:40;;;;;;;;;;;3.50;99.90;;;;;;5095801;28;20007;-77
2021/11/25 00:10:07;;;;;;;;;;;3.50;99.90;;;;;;5095685;28;19930;-77
2021/11/25 00:12:34;;;;;;;;;;;3.50;99.90;;;;;;5095888;28;20011;-77
2021/11/25 00:15:01;;;;;;;;;;;3.50;99.90;;;;;;5095643;28;20019;-77
2021/11/25 00:17:29;;;;;;;;;;;3.40;99.90;;;;;;5095678;28;20368;-77
2021/11/25 00:19:56;;;;;;;;;;;3.40;99.90;;;;;;5095570;28;20311;-76
2021/11/25 00:22:23;;;;;;;;;;;3.40;99.90;;;;;;5095426;28;20007;-77
2021/11/25 00:24:50;;;;;;;;;;;3.30;99.90;;;;;;5095453;28;20014;-77
2021/11/25 00:27:16;;;;;;;;;;;3.40;99.90;;;;;;5095624;28;20018;-76
2021/11/25 00:29:43;;;;;;;;;;;3.30;99.90;;;;;;5095211;28;20419;-76
2021/11/25 00:32:10;;;;;;;;;;;3.20;99.90;;;;;;5095469;28;20026;-76
2021/11/25 00:34:39;;;;;;;;;;;3.30;99.90;;;;;;5095369;28;19928;-76
2021/11/25 00:37:05;;;;;;;;;;;3.20;99.90;;;;;;5095202;28;20027;-76
2021/11/25 00:39:32;;;;;;;;;;;3.20;99.90;;;;;;5095206;28;19925;-77
2021/11/25 00:41:59;;;;;;;;;;;3.20;99.90;;;;;;5095377;28;20323;-76
2021/11/25 00:44:26;;;;;;;;;;;3.20;99.90;;;;;;5095333;28;20023;-77
2021/11/25 00:46:53;;;;;;;;;;;3.20;99.90;;;;;;5098179;28;20018;-77
2021/11/25 00:49:20;;;;;;;;;;;3.20;99.90;;;;;;5101856;28;19924;-76
2021/11/25 00:51:48;;;;;;;;;;;3.20;99.90;;;;;;5101841;28;20462;-76
2021/11/25 00:54:15;;;;;;;;;;;3.20;99.90;;;;;;5102149;28;20019;-76
2021/11/25 00:56:42;;;;;;;;;;;3.10;99.90;;;;;;5102009;28;20022;-76
2021/11/25 00:59:10;;;;;;;;;;;3.10;99.90;;;;;;5101814;28;19924;-76
2021/11/25 01:01:37;;;;;;;;;;;3.10;99.90;;;;;;5101907;28;19989;-77
2021/11/25 01:04:04;;;;;;;;;;;3.00;99.90;;;;;;5101776;28;20014;-76
2021/11/25 01:06:31;;;;;;;;;;;3.00;99.90;;;;;;5102012;28;20019;-77
2021/11/25 01:08:59;;;;;;;;;;;2.90;99.90;;;;;;5101836;28;20022;-77
2021/11/25 01:11:26;;;;;;;;;;;2.90;99.90;;;;;;5101797;28;20023;-76
2021/11/25 01:13:53;;;;;;;;;;;2.80;99.90;;;;;;5101792;28;20019;-76
2021/11/25 01:16:20;;;;;;;;;;;2.70;99.90;;;;;;5101955;28;20003;-76
2021/11/25 01:18:47;;;;;;;;;;;2.80;99.90;;;;;;5101641;28;20439;-76
2021/11/25 01:21:14;;;;;;;;;;;2.70;99.90;;;;;;5106099;28;19981;-78
2021/11/25 01:23:41;;;;;;;;;;;2.70;99.90;;;;;;5102212;28;19924;-76
2021/11/25 01:26:09;;;;;;;;;;;2.70;99.90;;;;;;5101863;28;19934;-76
2021/11/25 01:28:36;;;;;;;;;;;2.70;99.90;;;;;;5101688;28;19951;-76
2021/11/25 01:31:03;;;;;;;;;;;2.70;99.90;;;;;;5101409;28;20010;-77
2021/11/25 01:33:30;;;;;;;;;;;2.70;99.90;;;;;;5101596;28;20417;-76
2021/11/25 01:35:57;;;;;;;;;;;2.70;99.90;;;;;;5101717;28;19924;-76
2021/11/25 01:38:24;;;;;;;;;;;2.70;99.90;;;;;;5101510;28;20349;-76
2021/11/25 01:40:51;;;;;;;;;;;2.70;99.90;;;;;;5101433;28;20026;-76
2021/11/25 01:43:21;;;;;;;;;;;2.60;99.90;;;;;;5101565;28;19979;-76
2021/11/25 01:45:49;;;;;;;;;;;2.60;99.90;;;;;;5101827;28;20000;-76
2021/11/25 01:48:16;;;;;;;;;;;2.60;99.90;;;;;;5101356;28;19924;-76
2021/11/25 01:50:43;;;;;;;;;;;2.50;99.90;;;;;;5101386;28;20324;-76
2021/11/25 01:53:11;;;;;;;;;;;2.50;99.90;;;;;;5101359;28;20403;-76
2021/11/25 01:55:37;;;;;;;;;;;2.50;99.90;;;;;;5101466;28;20019;-76
2021/11/25 01:58:08;;;;;;;;;;;2.40;99.90;;;;;;5099307;28;19939;-76
2021/11/25 02:00:40;;;;;;;;;;;2.40;99.90;;;;;;5098253;28;20348;-76
2021/11/25 02:03:07;;;;;;;;;;;2.40;99.90;;;;;;5098033;28;20023;-76
2021/11/25 02:05:34;;;;;;;;;;;2.40;99.90;;;;;;5098050;28;20351;-76
2021/11/25 02:08:01;;;;;;;;;;;2.30;99.90;;;;;;5098209;28;20006;-76
2021/11/25 02:10:28;;;;;;;;;;;2.30;99.90;;;;;;5098003;28;19924;-76
2021/11/25 02:12:55;;;;;;;;;;;2.30;99.90;;;;;;5098019;28;20012;-76
2021/11/25 02:15:21;;;;;;;;;;;2.30;99.90;;;;;;5097950;28;20319;-77
2021/11/25 02:17:50;;;;;;;;;;;2.30;99.90;;;;;;5098099;28;20014;-76
2021/11/25 02:20:17;;;;;;;;;;;2.20;99.90;;;;;;5097794;28;19990;-76
2021/11/25 02:22:45;;;;;;;;;;;2.20;99.90;;;;;;5097705;28;20006;-76
2021/11/25 02:25:12;;;;;;;;;;;2.20;99.90;;;;;;5097603;28;20026;-77
2021/11/25 02:27:39;;;;;;;;;;;2.20;99.90;;;;;;5097784;28;19924;-76
2021/11/25 02:30:07;;;;;;;;;;;2.20;99.90;;;;;;5097541;28;20011;-76
2021/11/25 02:32:34;;;;;;;;;;;2.20;99.90;;;;;;5097795;28;20054;-76
2021/11/25 02:35:01;;;;;;;;;;;2.20;99.90;;;;;;5097600;28;19924;-76
2021/11/25 02:37:28;;;;;;;;;;;2.20;99.90;;;;;;5097465;28;19924;-76
2021/11/25 02:39:56;;;;;;;;;;;2.10;99.90;;;;;;5097362;28;19997;-76
2021/11/25 02:42:23;;;;;;;;;;;2.10;99.90;;;;;;5097356;28;19924;-76
2021/11/25 02:44:50;;;;;;;;;;;2.10;99.90;;;;;;5097447;28;20307;-76
2021/11/25 02:47:17;;;;;;;;;;;2.00;99.90;;;;;;5097187;28;20034;-76
2021/11/25 02:49:43;;;;;;;;;;;2.00;99.90;;;;;;5097232;28;20419;-76
2021/11/25 02:52:10;;;;;;;;;;;2.00;99.90;;;;;;5097161;28;20007;-76
2021/11/25 02:54:37;;;;;;;;;;;1.90;99.90;;;;;;5096909;28;20007;-76
2021/11/25 02:57:06;;;;;;;;;;;1.90;99.90;;;;;;5097338;28;20007;-76
2021/11/25 02:59:33;;;;;;;;;;;1.90;99.90;;;;;;5097184;28;19973;-76
2021/11/25 03:01:59;;;;;;;;;;;2.00;99.90;;;;;;5097155;28;20019;-76
2021/11/25 03:04:26;;;;;;;;;;;2.00;99.90;;;;;;5096770;28;20019;-76
2021/11/25 03:06:53;;;;;;;;;;;2.00;99.90;;;;;;5096739;28;20011;-76
2021/11/25 03:09:20;;;;;;;;;;;2.00;99.90;;;;;;5096543;28;20335;-76
2021/11/25 03:11:47;;;;;;;;;;;1.90;99.90;;;;;;5096624;28;20038;-76
2021/11/25 03:14:15;;;;;;;;;;;1.80;99.90;;;;;;5096858;28;20022;-76
2021/11/25 03:16:42;;;;;;;;;;;1.80;99.90;;;;;;5096616;28;19931;-76
2021/11/25 03:19:09;;;;;;;;;;;1.70;99.90;;;;;;5096589;28;19930;-76
2021/11/25 03:21:36;;;;;;;;;;;1.70;99.90;;;;;;5096703;28;20339;-76
2021/11/25 03:24:03;;;;;;;;;;;1.70;99.90;;;;;;5096595;28;20018;-76
2021/11/25 03:26:30;;;;;;;;;;;1.60;99.90;;;;;;5096783;28;20035;-76
2021/11/25 03:28:56;;;;;;;;;;;1.60;99.90;;;;;;5096720;28;20030;-76
2021/11/25 03:31:25;;;;;;;;;;;1.60;99.90;;;;;;5096570;28;20010;-76
2021/11/25 03:33:52;;;;;;;;;;;1.60;99.90;;;;;;5096455;28;19931;-76
2021/11/25 03:36:19;;;;;;;;;;;1.50;99.90;;;;;;5096395;28;20022;-76
2021/11/25 03:38:46;;;;;;;;;;;1.50;99.90;;;;;;5096406;28;20015;-76
2021/11/25 03:41:13;;;;;;;;;;;1.50;99.90;;;;;;5096232;28;20027;-76
2021/11/25 03:43:40;;;;;;;;;;;1.40;99.90;;;;;;5096069;28;20030;-76
2021/11/25 03:46:06;;;;;;;;;;;1.50;99.90;;;;;;5096356;28;20339;-76
2021/11/25 03:48:35;;;;;;;;;;;1.50;99.90;;;;;;5096068;28;19985;-76
2021/11/25 03:51:02;;;;;;;;;;;1.40;99.90;;;;;;5096204;28;20225;-76
2021/11/25 03:53:29;;;;;;;;;;;1.50;99.90;;;;;;5096085;28;20331;-76
2021/11/25 03:55:56;;;;;;;;;;;1.50;99.90;;;;;;5096205;28;19924;-76
2021/11/25 03:58:23;;;;;;;;;;;1.40;99.90;;;;;;5096166;28;20018;-76
2021/11/25 04:00:52;;;;;;;;;;;1.50;99.90;;;;;;5096259;28;20031;-76
2021/11/25 04:03:19;;;;;;;;;;;1.50;99.90;;;;;;5095913;28;19982;-77
2021/11/25 04:05:47;;;;;;;;;;;0.20;99.90;;;;;;5095763;28;20419;-76
2021/11/25 04:08:14;;;;;;;;;;;1.40;99.90;;;;;;5095875;28;20375;-76
2021/11/25 04:10:41;;;;;;;;;;;1.50;99.90;;;;;;5095959;28;19924;-76
2021/11/25 04:13:07;;;;;;;;;;;1.40;99.90;;;;;;5095821;28;20015;-76
2021/11/25 04:15:34;;;;;;;;;;;1.40;99.90;;;;;;5095848;28;20022;-76
2021/11/25 04:18:01;;;;;;;;;;;1.40;99.90;;;;;;5095545;28;19924;-76
2021/11/25 04:20:28;;;;;;;;;;;1.30;99.90;;;;;;5095681;28;20022;-76
2021/11/25 04:22:58;;;;;;;;;;;1.30;99.90;;;;;;5094982;28;20327;-76
2021/11/25 04:25:25;;;;;;;;;;;1.20;99.90;;;;;;5095403;28;20007;-76
2021/11/25 04:27:52;;;;;;;;;;;1.20;99.90;;;;;;5095509;28;20341;-76
2021/11/25 04:30:47;;;;;;;;;;;1.20;99.90;;;;;;5095437;28;20010;-76
2021/11/25 04:35:58;;;;;;;;;;;1.30;99.90;;;;;;5095813;28;20387;-76
2021/11/25 04:38:26;;;;;;;;;;;1.30;99.90;;;;;;5095502;28;20003;-76
2021/11/25 04:40:54;;;;;;;;;;;1.30;99.90;;;;;;5095407;28;19924;-76
2021/11/25 04:43:21;;;;;;;;;;;1.30;99.90;;;;;;5095470;28;19924;-76
2021/11/25 04:45:48;;;;;;;;;;;1.20;99.90;;;;;;5095151;28;19928;-76
2021/11/25 04:48:16;;;;;;;;;;;1.20;99.90;;;;;;5095187;28;20011;-76
2021/11/25 04:50:43;;;;;;;;;;;1.20;99.90;;;;;;5095345;28;20030;-76
2021/11/25 04:53:11;;;;;;;;;;;1.20;99.90;;;;;;5095192;28;20007;-76
2021/11/25 04:55:40;;;;;;;;;;;1.20;99.90;;;;;;5095183;28;19928;-76
2021/11/25 04:58:06;;;;;;;;;;;1.20;99.90;;;;;;5095225;28;20271;-75
2021/11/25 05:00:33;;;;;;;;;;;1.10;99.90;;;;;;5095186;28;19924;-75
2021/11/25 05:03:00;;;;;;;;;;;1.10;99.90;;;;;;5095112;28;20014;-75
2021/11/25 05:05:27;;;;;;;;;;;1.10;99.90;;;;;;5094992;28;19930;-75
2021/11/25 05:07:54;;;;;;;;;;;1.10;99.90;;;;;;5095311;28;20001;-76
2021/11/25 05:10:21;;;;;;;;;;;1.10;99.90;;;;;;5095087;28;19924;-76
2021/11/25 05:12:49;;;;;;;;;;;1.10;99.90;;;;;;5094966;28;19975;-76
2021/11/25 05:15:16;;;;;;;;;;;1.10;99.90;;;;;;5094864;28;19924;-76
2021/11/25 05:17:43;;;;;;;;;;;1.10;99.90;;;;;;5095060;28;20018;-76
2021/11/25 05:20:10;;;;;;;;;;;1.20;99.90;;;;;;5095071;28;19942;-76
2021/11/25 05:22:37;;;;;;;;;;;1.10;99.90;;;;;;5094937;28;19924;-76
2021/11/25 05:25:05;;;;;;;;;;;1.00;99.90;;;;;;5094821;28;20238;-75
2021/11/25 05:27:32;;;;;;;;;;;1.10;99.90;;;;;;5094963;28;19924;-76
2021/11/25 05:30:00;;;;;;;;;;;1.10;99.90;;;;;;5094757;28;19975;-76
2021/11/25 05:32:27;;;;;;;;;;;1.10;99.90;;;;;;5095190;28;19934;-76
2021/11/25 05:34:54;;;;;;;;;;;1.10;99.90;;;;;;5098034;28;19932;-76
2021/11/25 05:37:20;;;;;;;;;;;1.10;99.90;;;;;;5098658;28;19983;-76
2021/11/25 05:39:47;;;;;;;;;;;1.10;99.90;;;;;;5098626;28;19924;-76
2021/11/25 05:42:14;;;;;;;;;;;1.10;99.90;;;;;;5098503;28;19924;-76
2021/11/25 05:44:42;;;;;;;;;;;1.10;99.90;;;;;;5098395;28;19934;-76
2021/11/25 05:47:10;;;;;;;;;;;1.00;99.90;;;;;;5098450;28;19939;-76
2021/11/25 05:49:37;;;;;;;;;;;1.00;99.90;;;;;;5098362;28;20019;-76
2021/11/25 05:52:04;;;;;;;;;;;1.00;99.90;;;;;;5098416;28;19977;-76
2021/11/25 05:54:31;;;;;;;;;;;1.00;99.90;;;;;;5098451;28;19950;-76
2021/11/25 05:56:58;;;;;;;;;;;1.00;99.90;;;;;;5098714;28;19924;-76
2021/11/25 05:59:25;;;;;;;;;;;1.00;99.90;;;;;;5098654;28;19924;-76
2021/11/25 06:01:52;;;;;;;;;;;1.00;99.90;;;;;;5099577;28;19924;-76
2021/11/25 06:04:20;;;;;;;;;;;1.00;99.90;;;;;;5098068;28;19928;-76
2021/11/25 06:06:47;;;;;;;;;;;1.00;99.90;;;;;;5098288;28;19925;-76
2021/11/25 06:09:14;;;;;;;;;;;0.90;99.90;;;;;;5098085;28;20027;-76
2021/11/25 06:11:40;;;;;;;;;;;0.90;99.90;;;;;;5097900;28;20015;-76
2021/11/25 06:14:07;;;;;;;;;;;0.90;99.90;;;;;;5097947;28;19924;-76
2021/11/25 06:16:34;;;;;;;;;;;0.90;99.90;;;;;;5099430;28;19924;-77
2021/11/25 06:19:01;;;;;;;;;;;0.90;99.90;;;;;;5099952;28;20022;-78
2021/11/25 06:21:29;;;;;;;;;;;0.80;99.90;;;;;;5098057;28;19924;-76
2021/11/25 06:23:57;;;;;;;;;;;0.90;99.90;;;;;;5099898;28;20023;-78
2021/11/25 06:26:23;;;;;;;;;;;0.80;99.90;;;;;;5102108;28;20014;-76
2021/11/25 06:28:54;;;;;;;;;;;0.90;99.90;;;;;;5097321;28;20022;-76
2021/11/25 06:31:21;;;;;;;;;;;0.90;99.90;;;;;;5097796;28;20337;-76
2021/11/25 06:33:50;;;;;;;;;;;0.90;99.90;;;;;;5096863;28;20209;-76
2021/11/25 06:36:17;;;;;;;;;;;0.90;99.90;;;;;;5097505;28;19924;-76
2021/11/25 06:38:45;;;;;;;;;;;0.90;99.90;;;;;;5097563;28;20081;-76
2021/11/25 06:41:12;;;;;;;;;;;0.90;99.90;;;;;;5097484;28;20019;-76
2021/11/25 06:43:39;;;;;;;;;;;0.90;99.90;;;;;;5097375;28;20324;-76
2021/11/25 06:46:06;;;;;;;;;;;1.00;99.90;;;;;;5094688;28;19924;-76
2021/11/25 06:48:33;;;;;;;;;;;1.00;99.90;;;;;;5093277;28;19924;-76
2021/11/25 06:51:00;;;;;;;;;;;1.00;99.90;;;;;;5097216;28;20269;-76
2021/11/25 06:53:28;;;;;;;;;;;1.00;99.90;;;;;;5096958;28;20241;-76
2021/11/25 06:55:56;;;;;;;;;;;1.00;99.90;;;;;;5097045;28;19935;-76
2021/11/25 06:58:23;;;;;;;;;;;1.00;99.90;;;;;;5097373;28;20002;-76
2021/11/25 07:00:50;;;;;;;;;;;1.00;99.90;;;;;;5097341;28;20010;-76
2021/11/25 07:03:17;;;;;;;;;;;1.00;99.90;;;;;;5097026;28;19924;-76
2021/11/25 07:05:44;;;;;;;;;;;1.00;99.90;;;;;;5096661;28;19930;-76
2021/11/25 07:08:10;;;;;;;;;;;1.00;99.90;;;;;;5096813;28;19934;-76
2021/11/25 07:10:37;;;;;;;;;;;0.90;99.90;;;;;;5096804;28;20018;-76
2021/11/25 07:13:06;;;;;;;;;;;0.90;99.90;;;;;;5096714;28;20301;-76
2021/11/25 07:15:32;;;;;;;;;;;0.90;99.90;;;;;;5097069;28;19924;-76
2021/11/25 07:17:59;;;;;;;;;;;0.90;99.90;;;;;;5096748;28;19938;-76
2021/11/25 07:20:26;;;;;;;;;;;0.80;99.90;;;;;;5096767;28;20022;-76
2021/11/25 07:22:53;;;;;;;;;;;0.80;99.90;;;;;;5096313;28;20006;-76
2021/11/25 07:25:20;;;;;;;;;;;0.80;99.90;;;;;;5096542;28;20323;-76
2021/11/25 07:27:47;;;;;;;;;;;0.80;99.90;;;;;;5096775;28;20010;-76
2021/11/25 07:30:15;;;;;;;;;;;0.80;99.90;;;;;;5096110;28;20015;-76
2021/11/25 07:32:42;;;;;;;;;;;0.80;99.90;;;;;;5096711;28;20019;-76
2021/11/25 07:35:09;;;;;;;;;;;0.90;99.90;;;;;;5096349;28;19928;-76
2021/11/25 07:37:36;;;;;;;;;;;0.80;99.90;;;;;;5096180;28;20272;-76
2021/11/25 07:40:03;;;;;;;;;;;0.80;99.90;;;;;;5096551;28;20035;-76
2021/11/25 07:42:30;;;;;;;;;;;0.80;99.90;;;;;;5095875;28;19950;-76
2021/11/25 07:44:57;;;;;;;;;;;0.80;99.90;;;;;;5095962;28;20259;-76
2021/11/25 07:47:32;;;;;;;;;;;0.80;99.90;;;;;;5096258;28;20015;-76
2021/11/25 07:49:59;;;;;;;;;;;0.80;99.90;;;;;;5096312;28;19997;-76
2021/11/25 07:52:26;;;;;;;;;;;0.80;99.90;;;;;;5095861;28;19986;-76
2021/11/25 07:54:53;;;;;;;;;;;0.80;99.90;;;;;;5096317;28;20321;-76
2021/11/25 07:57:20;;;;;;;;;;;0.90;99.90;;;;;;5095392;28;20014;-76
2021/11/25 07:59:46;;;;;;;;;;;0.80;99.90;;;;;;5096166;28;20019;-76
2021/11/25 08:02:16;;;;;;;;;;;0.90;99.90;;;;;;5095943;28;20022;-76
2021/11/25 08:04:44;;;;;;;;;;;0.90;99.90;;;;;;5095614;28;19935;-76
2021/11/25 08:07:11;;;;;;;;;;;0.90;99.90;;;;;;5096018;28;20352;-76
2021/11/25 08:09:38;;;;;;;;;;;0.90;99.90;;;;;;5096034;28;20011;-76
2021/11/25 08:12:05;;;;;;;;;;;0.90;99.90;;;;;;5095973;28;20015;-75
2021/11/25 08:14:32;;;;;;;;;;;0.90;99.90;;;;;;5095906;28;20015;-76
2021/11/25 08:17:00;;;;;;;;;;;0.80;99.90;;;;;;5095639;28;19936;-76
2021/11/25 08:19:26;;;;;;;;;;;0.80;99.90;;;;;;5095783;28;19924;-76
2021/11/25 08:21:55;;;;;;;;;;;0.80;99.90;;;;;;5095623;28;19935;-76
2021/11/25 08:24:22;;;;;;;;;;;0.90;99.90;;;;;;5095872;28;19934;-76
2021/11/25 08:26:49;;;;;;;;;;;0.90;99.90;;;;;;5095485;28;19934;-76
2021/11/25 08:29:15;;;;;;;;;;;0.90;99.90;;;;;;5095509;28;20378;-76
2021/11/25 08:31:42;;;;;;;;;;;0.90;99.90;;;;;;5095641;28;20336;-76
2021/11/25 08:34:09;;;;;;;;;;;0.90;99.90;;;;;;5095830;28;20226;-76
2021/11/25 08:36:36;;;;;;;;;;;1.40;99.90;;;;;;5095681;28;20014;-76
2021/11/25 08:39:04;;;;;;;;;;;0.90;99.90;;;;;;5095531;28;20011;-76
2021/11/25 08:41:31;;;;;;;;;;;1.00;99.90;;;;;;5095550;28;19928;-76
2021/11/25 08:43:58;;;;;;;;;;;1.00;99.90;;;;;;5095623;28;19935;-76
2021/11/25 08:46:25;;;;;;;;;;;1.10;99.90;;;;;;5095253;28;20015;-76
2021/11/25 08:48:52;;;;;;;;;;;1.20;99.90;;;;;;5095179;28;20452;-76
2021/11/25 08:51:18;;;;;;;;;;;1.30;99.90;;;;;;5095177;28;20275;-76
2021/11/25 08:53:45;;;;;;;;;;;1.40;99.90;;;;;;5095355;28;20015;-76
2021/11/25 08:56:14;;;;;;;;;;;1.50;99.90;;;;;;5095289;28;20014;-76
2021/11/25 08:58:41;;;;;;;;;;;1.50;99.90;;;;;;5095085;28;19932;-76
2021/11/25 09:01:08;;;;;;;;;;;1.50;99.90;;;;;;5095339;28;19934;-76
2021/11/25 09:03:36;;;;;;;;;;;1.40;99.90;;;;;;5094033;28;20006;-76
2021/11/25 09:06:03;;;;;;;;;;;1.50;99.90;;;;;;5094692;28;19924;-76
2021/11/25 09:08:30;;;;;;;;;;;1.40;99.90;;;;;;5096637;28;20283;-76
2021/11/25 09:10:57;;;;;;;;;;;1.40;99.90;;;;;;5098695;28;20022;-76
2021/11/25 09:13:25;;;;;;;;;;;1.40;99.90;;;;;;5099257;28;20022;-76
2021/11/25 09:15:52;;;;;;;;;;;1.40;99.90;;;;;;5099558;28;19924;-76
2021/11/25 09:18:19;;;;;;;;;;;1.40;99.90;;;;;;5099066;28;19973;-76
2021/11/25 09:20:46;;;;;;;;;;;1.50;99.90;;;;;;5099045;28;20014;-76
2021/11/25 09:23:13;;;;;;;;;;;1.50;99.90;;;;;;5099455;28;19934;-76
2021/11/25 09:25:42;;;;;;;;;;;1.50;99.90;;;;;;5099148;28;19934;-76
2021/11/25 09:28:09;;;;;;;;;;;1.50;99.90;;;;;;5099017;28;19970;-76
2021/11/25 09:30:37;;;;;;;;;;;1.60;99.90;;;;;;5097878;28;19924;-76
2021/11/25 09:33:05;;;;;;;;;;;1.50;99.90;;;;;;5098852;28;19924;-76
2021/11/25 09:35:32;;;;;;;;;;;1.50;99.90;;;;;;5099290;28;19924;-76
2021/11/25 09:37:58;;;;;;;;;;;1.60;99.90;;;;;;5098929;28;19924;-76
2021/11/25 09:40:27;;;;;;;;;;;1.60;99.90;;;;;;5099043;28;19934;-76
2021/11/25 09:42:54;;;;;;;;;;;1.70;99.90;;;;;;5098514;28;20322;-76
2021/11/25 09:45:23;;;;;;;;;;;1.80;99.90;;;;;;5098544;28;19938;-76
2021/11/25 09:47:52;;;;;;;;;;;1.80;99.90;;;;;;5098894;28;19924;-76
2021/11/25 09:50:19;;;;;;;;;;;1.90;99.90;;;;;;5098592;28;19925;-76
2021/11/25 09:52:46;;;;;;;;;;;1.90;99.90;;;;;;5098539;28;20010;-76
2021/11/25 09:55:13;;;;;;;;;;;1.90;99.90;;;;;;5098467;28;20018;-76
2021/11/25 09:57:40;;;;;;;;;;;2.00;99.90;;;;;;5098423;28;19930;-76
2021/11/25 10:00:07;;;;;;;;;;;2.00;99.90;;;;;;5098312;28;19924;-76
2021/11/25 10:02:34;;;;;;;;;;;2.00;99.90;;;;;;5098300;28;19924;-76
2021/11/25 10:05:02;;;;;;;;;;;2.00;99.90;;;;;;5098288;28;19935;-76
2021/11/25 10:07:30;;;;;;;;;;;2.10;99.90;;;;;;5098072;28;19934;-76
2021/11/25 10:09:57;;;;;;;;;;;2.10;99.90;;;;;;5098250;28;19924;-76
2021/11/25 10:12:31;;;;;;;;;;;2.10;99.90;;;;;;5097971;28;19924;-76
2021/11/25 10:14:58;;;;;;;;;;;2.20;99.90;;;;;;5098286;28;19982;-76
2021/11/25 10:17:39;;;;;;;;;;;2.20;99.90;;;;;;5098283;28;19924;-76
2021/11/25 10:20:08;;;;;;;;;;;2.20;99.90;;;;;;5096836;28;19924;-76
2021/11/25 10:22:35;;;;;;;;;;;2.20;99.90;;;;;;5097841;28;20014;-76
2021/11/25 10:25:02;;;;;;;;;;;2.30;99.90;;;;;;5097710;28;19939;-76
2021/11/25 10:27:29;;;;;;;;;;;2.30;99.90;;;;;;5097689;28;19928;-76
2021/11/25 10:30:09;;;;;;;;;;;2.40;99.90;;;;;;5097592;28;19934;-76
2021/11/25 10:32:36;;;;;;;;;;;2.40;99.90;;;;;;5097816;28;20011;-76
2021/11/25 10:35:22;;;;;;;;;;;2.60;99.90;;;;;;5097707;28;19934;-76
2021/11/25 10:38:09;;;;;;;;;;;2.70;99.90;;;;;;5097717;28;19928;-76
2021/11/25 10:40:36;;;;;;;;;;;2.80;99.90;;;;;;5097655;28;19935;-76
2021/11/25 10:43:16;;;;;;;;;;;2.90;99.90;;;;;;5097548;28;19930;-76
2021/11/25 10:45:43;;;;;;;;;;;3.00;99.90;;;;;;5097459;28;19924;-76
2021/11/25 10:48:10;;;;;;;;;;;2.90;99.90;;;;;;5097582;28;19924;-76
2021/11/25 10:50:39;;;;;;;;;;;2.90;99.90;;;;;;5097688;28;19924;-76
2021/11/25 10:53:06;;;;;;;;;;;3.00;99.90;;;;;;5097560;28;19924;-76
2021/11/25 10:55:33;;;;;;;;;;;2.90;99.90;;;;;;5097111;28;19924;-76
2021/11/25 10:58:02;;;;;;;;;;;3.00;99.90;;;;;;5097441;28;20471;-76
2021/11/25 11:00:30;;;;;;;;;;;3.00;99.90;;;;;;5097159;28;19931;-76
2021/11/25 11:03:06;;;;;;;;;;;3.00;99.90;;;;;;5097045;28;19924;-76
2021/11/25 11:05:36;;;;;;;;;;;3.00;99.90;;;;;;5097279;28;20022;-76
2021/11/25 11:08:05;;;;;;;;;;;3.00;99.90;;;;;;5096842;28;19924;-76
2021/11/25 11:10:32;;;;;;;;;;;3.00;99.90;;;;;;5097228;28;19935;-76
2021/11/25 11:13:10;;;;;;;;;;;3.00;99.90;;;;;;5096934;28;19924;-76
2021/11/25 11:15:49;;;;;;;;;;;3.10;99.90;;;;;;5097235;28;19924;-76
2021/11/25 11:21:00;;;;;;;;;;;3.20;99.90;;;;;;5096973;28;20010;-76
2021/11/25 11:23:28;;;;;;;;;;;3.30;99.90;;;;;;5096733;28;19924;-76
2021/11/25 11:25:55;;;;;;;;;;;3.40;99.90;;;;;;5096738;28;19925;-76
2021/11/25 11:28:22;;;;;;;;;;;3.50;99.90;;;;;;5096606;28;19938;-76
2021/11/25 11:30:49;;;;;;;;;;;3.60;99.90;;;;;;5096443;28;19931;-76
2021/11/25 11:33:16;;;;;;;;;;;3.70;99.90;;;;;;5096423;28;20010;-76
2021/11/25 11:35:43;;;;;;;;;;;3.80;99.90;;;;;;5096413;28;20317;-76
2021/11/25 11:38:13;;;;;;;;;;;3.90;99.90;;;;;;5096514;28;20015;-76
2021/11/25 11:40:42;;;;;;;;;;;4.00;99.90;;;;;;5096571;28;20268;-76
2021/11/25 11:43:09;;;;;;;;;;;4.10;99.90;;;;;;5096418;28;19924;-76
2021/11/25 11:45:38;;;;;;;;;;;4.20;99.90;;;;;;5096391;28;19924;-76
2021/11/25 11:48:05;;;;;;;;;;;4.40;99.90;;;;;;5096102;28;19982;-76
2021/11/25 11:50:33;;;;;;;;;;;4.40;99.90;;;;;;5096331;28;19994;-76
2021/11/25 11:53:00;;;;;;;;;;;4.50;99.90;;;;;;5095999;28;20026;-76
2021/11/25 11:55:28;;;;;;;;;;;4.60;99.90;;;;;;5095929;28;20011;-76
2021/11/25 11:57:56;;;;;;;;;;;4.70;99.90;;;;;;5096227;28;19989;-76
2021/11/25 12:00:33;;;;;;;;;;;4.80;99.90;;;;;;5095936;28;20011;-76
2021/11/25 12:03:00;;;;;;;;;;;4.70;99.90;;;;;;5095863;28;19924;-76
2021/11/25 12:05:46;;;;;;;;;;;4.80;99.90;;;;;;5095899;28;20404;-76
2021/11/25 12:08:34;;;;;;;;;;;4.80;99.90;;;;;;5095730;28;19928;-76
2021/11/25 12:11:07;;;;;;;;;;;4.80;99.90;;;;;;5095676;28;19924;-76
2021/11/25 12:13:49;;;;;;;;;;;4.80;99.90;;;;;;5095675;28;19924;-76
2021/11/25 12:16:26;;;;;;;;;;;4.80;99.90;;;;;;5095473;28;20003;-76
2021/11/25 12:18:56;;;;;;;;;;;4.80;99.90;;;;;;5095702;28;19934;-76
2021/11/25 12:21:30;;;;;;;;;;;4.90;99.90;;;;;;5095566;28;20073;-76
2021/11/25 12:24:08;;;;;;;;;;;4.90;99.90;;;;;;5095774;28;19935;-76
2021/11/25 12:26:49;;;;;;;;;;;4.90;99.90;;;;;;5095650;28;19928;-76
2021/11/25 12:29:31;;;;;;;;;;;4.90;99.90;;;;;;5095341;28;20333;-76
2021/11/25 12:32:13;;;;;;;;;;;4.90;99.90;;;;;;5095569;28;19924;-76
2021/11/25 12:34:41;;;;;;;;;;;4.90;99.90;;;;;;5095349;28;19974;-76
2021/11/25 12:37:08;;;;;;;;;;;4.90;99.90;;;;;;5095241;28;20010;-76
2021/11/25 12:39:38;;;;;;;;;;;4.90;99.90;;;;;;5095255;28;19924;-76
2021/11/25 12:42:05;;;;;;;;;;;5.00;99.90;;;;;;5094764;28;20341;-76
2021/11/25 12:44:32;;;;;;;;;;;5.00;99.90;;;;;;5095797;28;20018;-76
2021/11/25 12:46:59;;;;;;;;;;;5.00;99.90;;;;;;5095235;28;19924;-76
2021/11/25 12:49:26;;;;;;;;;;;5.00;99.90;;;;;;5095393;28;19931;-76
2021/11/25 12:51:54;;;;;;;;;;;5.00;99.90;;;;;;5095196;28;19946;-76
2021/11/25 12:54:21;;;;;;;;;;;5.00;99.90;;;;;;5095162;28;19934;-76
2021/11/25 12:56:48;;;;;;;;;;;5.00;99.90;;;;;;5095192;28;20023;-76
2021/11/25 12:59:15;;;;;;;;;;;5.10;99.90;;;;;;5095038;28;19959;-76
2021/11/25 13:01:43;;;;;;;;;;;5.10;99.90;;;;;;5095123;28;20443;-76
2021/11/25 13:04:11;;;;;;;;;;;5.20;99.90;;;;;;5095192;28;20019;-76
2021/11/25 13:06:38;;;;;;;;;;;5.30;99.90;;;;;;5095194;28;20125;-76
2021/11/25 13:09:07;;;;;;;;;;;5.30;99.90;;;;;;5095273;28;19924;-76
2021/11/25 13:11:35;;;;;;;;;;;5.30;99.90;;;;;;5095002;28;19925;-76
2021/11/25 13:14:02;;;;;;;;;;;5.30;99.90;;;;;;5095040;28;19934;-76
2021/11/25 13:16:31;;;;;;;;;;;5.30;99.90;;;;;;5094901;28;19924;-76
2021/11/25 13:19:00;;;;;;;;;;;5.20;99.90;;;;;;5095039;28;19927;-76
2021/11/25 13:21:28;;;;;;;;;;;5.30;99.90;;;;;;5094973;28;20348;-76
2021/11/25 13:23:59;;;;;;;;;;;5.30;99.90;;;;;;5095050;28;19994;-76
2021/11/25 13:26:28;;;;;;;;;;;5.30;99.90;;;;;;5095270;28;19971;-76
2021/11/25 13:28:54;;;;;;;;;;;5.20;99.90;;;;;;5095092;28;19946;-76
2021/11/25 13:31:22;;;;;;;;;;;5.30;99.90;;;;;;5094956;28;19950;-76
2021/11/25 13:33:58;;;;;;;;;;;5.20;99.90;;;;;;5095196;28;19928;-76
2021/11/25 13:36:26;;;;;;;;;;;5.30;99.90;;;;;;5095019;28;19932;-76
2021/11/25 13:38:53;;;;;;;;;;;5.40;99.90;;;;;;5094962;28;19928;-76
2021/11/25 13:41:20;;;;;;;;;;;5.40;99.90;;;;;;5094852;28;20018;-76
2021/11/25 13:43:49;;;;;;;;;;;5.40;99.90;;;;;;5094740;28;19924;-76
2021/11/25 13:46:16;;;;;;;;;;;5.40;99.90;;;;;;5094620;28;20018;-75
2021/11/25 13:48:43;;;;;;;;;;;5.40;99.90;;;;;;5094562;28;19931;-76
2021/11/25 13:51:10;;;;;;;;;;;5.40;99.90;;;;;;5094838;28;19925;-76
2021/11/25 13:53:36;;;;;;;;;;;5.40;99.90;;;;;;5094517;28;20014;-76
2021/11/25 13:56:04;;;;;;;;;;;5.40;99.90;;;;;;5097846;28;19928;-76
2021/11/25 13:58:31;;;;;;;;;;;5.50;99.90;;;;;;5098142;28;19972;-75
2021/11/25 14:00:59;;;;;;;;;;;5.40;99.90;;;;;;5098284;28;19928;-75
2021/11/25 14:03:26;;;;;;;;;;;5.40;99.90;;;;;;5098371;28;19963;-76
2021/11/25 14:05:54;;;;;;;;;;;5.40;99.90;;;;;;5098234;28;20019;-75
2021/11/25 14:08:21;;;;;;;;;;;5.30;99.90;;;;;;5098007;28;20357;-76
2021/11/25 14:10:48;;;;;;;;;;;5.30;99.90;;;;;;5098052;28;20023;-76
2021/11/25 14:13:15;;;;;;;;;;;5.20;99.90;;;;;;5098058;28;20002;-76
2021/11/25 14:15:43;;;;;;;;;;;5.20;99.90;;;;;;5098056;28;19977;-76
2021/11/25 14:18:12;;;;;;;;;;;5.20;99.90;;;;;;5097845;28;20402;-76
2021/11/25 14:20:40;;;;;;;;;;;5.10;99.90;;;;;;5097878;28;19924;-76
2021/11/25 14:23:13;;;;;;;;;;;5.10;99.90;;;;;;5097676;28;19986;-76
2021/11/25 14:25:42;;;;;;;;;;;5.00;99.90;;;;;;5097353;28;20431;-76
2021/11/25 14:31:06;;;;;;;;;;;5.00;99.90;;;;;;5097672;28;19934;-76
2021/11/25 14:33:43;;;;;;;;;;;5.00;99.90;;;;;;5097578;28;19924;-76
2021/11/25 14:36:17;;;;;;;;;;;4.90;99.90;;;;;;5097728;28;19935;-76
2021/11/25 14:38:44;;;;;;;;;;;4.90;99.90;;;;;;5097749;28;20307;-76
2021/11/25 14:41:11;;;;;;;;;;;4.90;99.90;;;;;;5097590;28;20018;-76
2021/11/25 14:43:38;;;;;;;;;;;4.90;99.90;;;;;;5097426;28;19924;-76